createdAt,value
2022-12-09T00:02:04.801Z,14.30
2022-12-09T00:04:31.531Z,14.00
2022-12-09T00:06:58.005Z,13.40
2022-12-09T00:09:24.641Z,15.10
2022-12-09T00:11:52.862Z,14.60
2022-12-09T00:14:19.396Z,14.90
2022-12-09T00:16:46.116Z,15.10
2022-12-09T00:19:12.652Z,14.70
2022-12-09T00:21:39.110Z,14.20
2022-12-09T00:24:07.672Z,15.00
2022-12-09T00:26:34.574Z,15.60
2022-12-09T00:29:01.735Z,17.10
2022-12-09T00:31:34.192Z,20.30
2022-12-09T00:34:03.571Z,18.70
2022-12-09T00:36:30.332Z,17.60
2022-12-09T00:38:58.561Z,16.00
2022-12-09T00:41:26.196Z,16.50
2022-12-09T00:43:52.758Z,16.40
2022-12-09T00:46:19.615Z,15.30
2022-12-09T00:48:47.125Z,15.70
2022-12-09T00:51:19.601Z,15.70
2022-12-09T00:53:47.399Z,14.20
2022-12-09T00:56:14.004Z,14.80
2022-12-09T00:58:40.515Z,14.30
2022-12-09T01:01:07.240Z,14.90
2022-12-09T01:03:34.172Z,14.80
2022-12-09T01:06:01.157Z,15.30
2022-12-09T01:08:27.929Z,15.10
2022-12-09T01:10:54.545Z,15.00
2022-12-09T01:13:21.078Z,14.60
2022-12-09T01:15:47.618Z,15.20
2022-12-09T01:18:14.338Z,14.60
2022-12-09T01:20:41.246Z,13.70
2022-12-09T01:23:07.937Z,14.10
2022-12-09T01:25:34.392Z,14.80
2022-12-09T01:28:01.013Z,13.90
2022-12-09T01:30:27.739Z,13.70
2022-12-09T01:32:54.518Z,13.90
2022-12-09T01:35:21.261Z,14.10
2022-12-09T01:37:47.951Z,14.10
2022-12-09T01:40:17.061Z,15.20
2022-12-09T01:42:44.207Z,14.40
2022-12-09T01:45:19.862Z,14.60
2022-12-09T01:47:57.826Z,15.50
2022-12-09T01:50:26.075Z,14.60
2022-12-09T01:52:53.042Z,14.00
2022-12-09T01:55:19.686Z,13.40
2022-12-09T01:57:47.847Z,13.90
2022-12-09T02:00:15.061Z,13.70
2022-12-09T02:02:45.030Z,13.80
2022-12-09T02:05:12.287Z,13.00
2022-12-09T02:07:38.880Z,13.70
2022-12-09T02:10:11.516Z,14.30
2022-12-09T02:12:53.237Z,14.50
2022-12-09T02:15:24.306Z,15.30
2022-12-09T02:18:01.294Z,15.00
2022-12-09T02:20:39.804Z,15.40
2022-12-09T02:23:15.739Z,16.10
2022-12-09T02:25:55.632Z,15.20
2022-12-09T02:28:41.616Z,14.90
2022-12-09T02:31:34.619Z,15.00
2022-12-09T02:34:18.114Z,15.50
2022-12-09T02:36:54.678Z,15.10
2022-12-09T02:39:38.292Z,15.80
2022-12-09T02:42:08.325Z,15.60
2022-12-09T02:44:37.923Z,16.00
2022-12-09T02:47:06.703Z,15.70
2022-12-09T02:49:34.995Z,15.40
2022-12-09T02:52:04.268Z,14.90
2022-12-09T02:54:34.383Z,14.60
2022-12-09T02:57:13.387Z,14.80
2022-12-09T02:59:40.026Z,14.80
2022-12-09T03:02:26.302Z,15.40
2022-12-09T03:05:05.654Z,15.00
2022-12-09T03:07:55.885Z,14.80
2022-12-09T03:10:32.815Z,15.00
2022-12-09T03:13:07.037Z,14.20
2022-12-09T03:15:37.382Z,13.90
2022-12-09T03:18:09.269Z,14.20
2022-12-09T03:20:40.178Z,14.10
2022-12-09T03:23:09.888Z,14.20
2022-12-09T03:25:43.041Z,13.90
2022-12-09T03:28:24.519Z,13.70
2022-12-09T03:30:54.532Z,13.90
2022-12-09T03:33:23.625Z,13.90
2022-12-09T03:35:58.234Z,14.00
2022-12-09T03:38:31.060Z,13.90
2022-12-09T03:41:03.441Z,14.10
2022-12-09T03:43:34.823Z,14.60
2022-12-09T03:46:01.723Z,14.90
2022-12-09T03:48:28.537Z,13.70
2022-12-09T03:51:11.126Z,13.90
2022-12-09T03:53:51.579Z,13.80
2022-12-09T03:56:22.981Z,14.40
2022-12-09T03:58:53.818Z,14.30
2022-12-09T04:01:23.936Z,14.20
2022-12-09T04:03:53.695Z,14.70
2022-12-09T04:06:20.825Z,14.90
2022-12-09T04:08:47.399Z,14.20
2022-12-09T04:11:14.311Z,14.50
2022-12-09T04:13:41.225Z,14.50
2022-12-09T04:16:07.938Z,14.00
2022-12-09T04:18:34.756Z,14.20
2022-12-09T04:21:06.076Z,14.40
2022-12-09T04:23:35.564Z,14.00
2022-12-09T04:26:04.950Z,13.90
2022-12-09T04:28:31.800Z,13.70
2022-12-09T04:30:59.408Z,14.30
2022-12-09T04:33:26.999Z,14.30
2022-12-09T04:35:53.589Z,15.60
2022-12-09T04:38:20.244Z,14.70
2022-12-09T04:40:46.700Z,14.60
2022-12-09T04:43:13.379Z,14.60
2022-12-09T04:45:39.797Z,14.80
2022-12-09T04:48:06.870Z,14.30
2022-12-09T04:50:33.658Z,14.40
2022-12-09T04:53:00.421Z,14.90
2022-12-09T04:55:27.431Z,14.90
2022-12-09T04:57:54.249Z,14.30
2022-12-09T05:00:21.652Z,14.60
2022-12-09T05:02:48.314Z,14.70
2022-12-09T05:05:15.124Z,15.10
2022-12-09T05:07:42.279Z,15.00
2022-12-09T05:10:09.623Z,14.00
2022-12-09T05:12:36.696Z,15.10
2022-12-09T05:15:04.029Z,15.90
2022-12-09T05:17:30.629Z,15.70
2022-12-09T05:19:57.594Z,15.50
2022-12-09T05:22:24.514Z,15.30
2022-12-09T05:24:51.373Z,14.90
2022-12-09T05:27:17.957Z,14.70
2022-12-09T05:29:44.824Z,15.60
2022-12-09T05:32:11.715Z,15.00
2022-12-09T05:34:39.551Z,14.70
2022-12-09T05:37:06.537Z,14.30
2022-12-09T05:39:33.295Z,15.30
2022-12-09T05:41:59.973Z,15.40
2022-12-09T05:44:26.819Z,15.30
2022-12-09T05:46:53.657Z,15.30
2022-12-09T05:49:29.446Z,14.60
2022-12-09T05:51:56.053Z,19.30
2022-12-09T05:54:22.765Z,17.30
2022-12-09T05:56:49.801Z,17.80
2022-12-09T05:59:16.462Z,16.50
2022-12-09T06:01:43.403Z,17.10
2022-12-09T06:04:10.333Z,16.70
2022-12-09T06:06:37.089Z,16.60
2022-12-09T06:09:03.843Z,18.70
2022-12-09T06:11:32.351Z,18.50
2022-12-09T06:13:59.062Z,18.30
2022-12-09T06:16:26.416Z,17.30
2022-12-09T06:18:53.598Z,15.60
2022-12-09T06:21:20.959Z,14.40
2022-12-09T06:23:48.881Z,14.50
2022-12-09T06:26:25.291Z,13.40
2022-12-09T06:28:53.014Z,12.80
2022-12-09T06:31:20.662Z,14.00
2022-12-09T06:33:57.088Z,13.50
2022-12-09T06:36:26.535Z,14.10
2022-12-09T06:38:54.084Z,15.30
2022-12-09T06:41:21.269Z,12.80
2022-12-09T06:43:48.194Z,13.20
2022-12-09T06:46:17.236Z,12.60
2022-12-09T06:48:44.671Z,12.50
2022-12-09T06:51:11.972Z,13.70
2022-12-09T06:53:38.617Z,13.00
2022-12-09T06:56:11.874Z,13.80
2022-12-09T06:58:41.355Z,14.60
2022-12-09T07:01:18.319Z,14.20
2022-12-09T07:03:48.403Z,14.10
2022-12-09T07:06:27.824Z,14.30
2022-12-09T07:08:56.463Z,15.60
2022-12-09T07:11:23.638Z,15.10
2022-12-09T07:13:51.049Z,13.60
2022-12-09T07:16:18.596Z,13.60
2022-12-09T07:18:45.519Z,17.30
2022-12-09T07:21:18.799Z,18.50
2022-12-09T07:23:46.620Z,21.40
2022-12-09T07:26:14.363Z,26.10
2022-12-09T07:28:42.697Z,23.20
2022-12-09T07:31:25.243Z,21.40
2022-12-09T07:33:53.533Z,20.40
2022-12-09T07:36:22.275Z,18.60
2022-12-09T07:38:54.516Z,17.40
2022-12-09T07:41:21.758Z,16.60
2022-12-09T07:43:48.978Z,15.80
2022-12-09T07:46:18.124Z,16.20
2022-12-09T07:48:45.286Z,17.00
2022-12-09T07:51:12.718Z,16.50
2022-12-09T07:53:39.900Z,17.00
2022-12-09T07:56:11.974Z,17.20
2022-12-09T07:58:38.940Z,15.80
2022-12-09T08:01:11.554Z,15.80
2022-12-09T08:03:40.268Z,15.90
2022-12-09T08:06:07.106Z,17.10
2022-12-09T08:08:34.675Z,17.30
2022-12-09T08:11:14.183Z,17.20
2022-12-09T08:13:43.908Z,17.10
2022-12-09T08:16:13.385Z,16.20
2022-12-09T08:18:41.302Z,17.70
2022-12-09T08:21:11.757Z,17.90
2022-12-09T08:23:38.977Z,17.60
2022-12-09T08:26:06.172Z,17.80
2022-12-09T08:28:33.232Z,17.70
2022-12-09T08:31:07.237Z,18.50
2022-12-09T08:33:34.631Z,18.60
2022-12-09T08:36:02.620Z,18.20
2022-12-09T08:38:29.518Z,18.80
2022-12-09T08:40:56.603Z,19.20
2022-12-09T08:43:23.371Z,18.20
2022-12-09T08:45:50.139Z,18.50
2022-12-09T08:48:16.801Z,18.60
2022-12-09T08:50:43.434Z,19.90
2022-12-09T08:53:10.086Z,19.60
2022-12-09T08:55:39.492Z,19.60
2022-12-09T08:58:06.422Z,18.40
2022-12-09T09:00:33.085Z,19.10
2022-12-09T09:03:00.032Z,19.30
2022-12-09T09:05:27.149Z,19.10
2022-12-09T09:07:54.216Z,18.60
2022-12-09T09:10:21.121Z,18.70
2022-12-09T09:12:48.564Z,19.60
2022-12-09T09:15:16.001Z,18.60
2022-12-09T09:17:48.151Z,19.20
2022-12-09T09:20:18.376Z,18.20
2022-12-09T09:22:45.197Z,17.90
2022-12-09T09:25:11.877Z,17.30
2022-12-09T09:27:39.108Z,18.10
2022-12-09T09:30:09.420Z,18.10
2022-12-09T09:32:36.354Z,17.40
2022-12-09T09:35:03.394Z,16.80
2022-12-09T09:37:31.635Z,17.20
2022-12-09T09:39:58.264Z,17.80
2022-12-09T09:42:34.434Z,16.50
2022-12-09T09:45:06.816Z,15.80
2022-12-09T09:47:40.128Z,16.40
2022-12-09T09:50:08.209Z,16.30
2022-12-09T09:52:38.855Z,16.70
2022-12-09T09:55:14.725Z,16.10
2022-12-09T09:58:13.065Z,16.30
2022-12-09T10:01:04.241Z,16.50
2022-12-09T10:03:43.742Z,16.80
2022-12-09T10:06:35.364Z,17.20
2022-12-09T10:09:24.993Z,17.30
2022-12-09T10:12:12.370Z,17.20
2022-12-09T10:14:54.491Z,17.20
2022-12-09T10:17:52.195Z,17.50
2022-12-09T10:20:27.006Z,16.00
2022-12-09T10:23:00.175Z,16.00
2022-12-09T10:25:30.180Z,16.60
2022-12-09T10:28:21.580Z,16.10
2022-12-09T10:30:53.557Z,15.90
2022-12-09T10:33:36.450Z,16.00
2022-12-09T10:36:04.417Z,15.50
2022-12-09T10:38:35.782Z,15.90
2022-12-09T10:41:57.116Z,15.60
2022-12-09T10:44:26.860Z,14.60
2022-12-09T10:47:04.228Z,15.70
2022-12-09T10:49:33.236Z,15.20
2022-12-09T10:52:00.784Z,15.30
2022-12-09T10:54:36.494Z,15.30
2022-12-09T10:57:12.637Z,15.70
2022-12-09T10:59:41.690Z,14.90
2022-12-09T11:02:08.802Z,15.00
2022-12-09T11:04:40.041Z,15.80
2022-12-09T11:07:07.025Z,15.80
2022-12-09T11:09:36.125Z,16.30
2022-12-09T11:12:06.611Z,15.50
2022-12-09T11:14:36.713Z,15.30
2022-12-09T11:17:20.181Z,15.10
2022-12-09T11:19:51.668Z,14.80
2022-12-09T11:22:24.030Z,14.50
2022-12-09T11:24:56.672Z,14.50
2022-12-09T11:27:31.112Z,15.20
2022-12-09T11:30:13.057Z,14.80
2022-12-09T11:33:02.404Z,14.60
2022-12-09T11:35:44.892Z,15.70
2022-12-09T11:38:31.011Z,15.40
2022-12-09T11:41:40.405Z,15.00
2022-12-09T11:44:30.192Z,14.70
2022-12-09T11:47:06.467Z,15.00
2022-12-09T11:49:54.063Z,14.90
2022-12-09T11:52:28.490Z,14.40
2022-12-09T11:55:06.017Z,15.30
2022-12-09T11:57:44.368Z,14.70
2022-12-09T12:00:23.059Z,15.40
2022-12-09T12:03:08.335Z,14.90
2022-12-09T12:05:43.450Z,14.90
2022-12-09T12:08:34.979Z,15.20
2022-12-09T12:11:15.297Z,16.40
2022-12-09T12:13:46.404Z,15.00
2022-12-09T12:16:39.748Z,15.10
2022-12-09T12:19:21.953Z,16.00
2022-12-09T12:21:54.804Z,14.80
2022-12-09T12:25:00.273Z,15.50
2022-12-09T12:27:29.496Z,14.70
2022-12-09T12:30:01.850Z,15.60
2022-12-09T12:36:07.657Z,15.00
2022-12-09T12:39:00.573Z,14.10
2022-12-09T12:42:02.405Z,14.10
2022-12-09T12:45:11.234Z,15.80
2022-12-09T12:47:46.135Z,14.50
2022-12-09T12:50:20.241Z,15.10
2022-12-09T12:53:04.259Z,16.10
2022-12-09T12:56:11.605Z,15.00
2022-12-09T12:58:37.985Z,15.00
2022-12-09T13:01:35.881Z,15.10
2022-12-09T13:04:21.779Z,14.80
2022-12-09T13:07:09.565Z,14.90
2022-12-09T13:10:10.375Z,15.10
2022-12-09T13:13:01.652Z,15.90
2022-12-09T13:15:40.372Z,17.00
2022-12-09T13:18:37.506Z,15.90
2022-12-09T13:21:06.259Z,16.50
2022-12-09T13:23:48.585Z,15.90
2022-12-09T13:26:21.094Z,15.90
2022-12-09T13:29:17.422Z,15.40
2022-12-09T13:32:08.622Z,16.30
2022-12-09T13:34:54.297Z,17.30
2022-12-09T13:37:34.681Z,17.30
2022-12-09T13:40:01.889Z,17.90
2022-12-09T13:42:47.600Z,17.10
2022-12-09T13:45:32.691Z,16.80
2022-12-09T13:48:16.574Z,17.60
2022-12-09T13:50:49.762Z,16.80
2022-12-09T13:53:19.106Z,17.10
2022-12-09T13:55:56.376Z,19.90
2022-12-09T13:58:39.566Z,17.90
2022-12-09T14:01:12.686Z,16.10
2022-12-09T14:04:00.553Z,15.10
2022-12-09T14:06:33.151Z,16.40
2022-12-09T14:09:05.405Z,16.90
2022-12-09T14:11:37.972Z,16.40
2022-12-09T14:14:22.887Z,15.50
2022-12-09T14:16:50.505Z,15.30
2022-12-09T14:19:26.371Z,14.90
2022-12-09T14:22:23.927Z,15.10
2022-12-09T14:24:53.771Z,14.80
2022-12-09T14:27:27.772Z,14.90
2022-12-09T14:29:59.129Z,14.30
2022-12-09T14:32:29.053Z,14.50
2022-12-09T14:35:02.271Z,14.70
2022-12-09T14:37:35.965Z,15.90
2022-12-09T14:40:41.385Z,16.00
2022-12-09T14:43:26.990Z,16.20
2022-12-09T14:46:00.791Z,17.60
2022-12-09T14:48:32.263Z,17.50
2022-12-09T14:51:21.671Z,18.10
2022-12-09T14:54:01.772Z,18.80
2022-12-09T14:56:30.777Z,19.40
2022-12-09T14:59:04.089Z,19.00
2022-12-09T15:01:30.670Z,19.60
2022-12-09T15:03:59.684Z,19.90
2022-12-09T15:06:27.006Z,20.70
2022-12-09T15:08:56.058Z,20.60
2022-12-09T15:11:35.268Z,20.00
2022-12-09T15:14:25.627Z,20.40
2022-12-09T15:16:53.145Z,20.90
2022-12-09T15:19:58.009Z,20.60
2022-12-09T15:22:21.571Z,19.70
2022-12-09T15:24:50.454Z,21.80
2022-12-09T15:27:20.126Z,21.20
2022-12-09T15:29:46.776Z,21.80
2022-12-09T15:32:22.467Z,22.10
2022-12-09T15:34:49.005Z,21.50
2022-12-09T15:37:17.725Z,20.80
2022-12-09T15:40:09.439Z,21.00
2022-12-09T15:42:40.177Z,20.50
2022-12-09T15:45:21.351Z,18.20
2022-12-09T15:47:55.961Z,14.40
2022-12-09T15:50:51.756Z,12.60
2022-12-09T15:53:27.304Z,11.30
2022-12-09T15:55:58.231Z,13.10
2022-12-09T15:58:30.258Z,11.70
2022-12-09T16:00:57.427Z,13.20
2022-12-09T16:03:31.042Z,13.00
2022-12-09T16:06:01.832Z,12.50
2022-12-09T16:08:35.143Z,13.80
2022-12-09T16:11:02.092Z,15.30
2022-12-09T16:13:29.656Z,17.60
2022-12-09T16:15:59.621Z,16.60
2022-12-09T16:18:34.022Z,17.80
2022-12-09T16:21:16.028Z,16.50
2022-12-09T16:23:45.418Z,18.50
2022-12-09T16:26:21.233Z,17.40
2022-12-09T16:28:59.601Z,18.00
2022-12-09T16:31:26.954Z,18.70
2022-12-09T16:33:53.938Z,21.20
2022-12-09T16:36:27.212Z,21.90
2022-12-09T16:39:09.110Z,22.90
2022-12-09T16:41:51.051Z,22.10
2022-12-09T16:44:32.441Z,19.80
2022-12-09T16:47:20.913Z,19.50
2022-12-09T16:49:48.684Z,19.60
2022-12-09T16:52:19.491Z,18.50
2022-12-09T16:54:47.739Z,16.20
2022-12-09T16:57:16.204Z,19.10
2022-12-09T16:59:43.739Z,17.20
2022-12-09T17:02:16.637Z,21.20
2022-12-09T17:04:43.198Z,20.40
2022-12-09T17:07:09.804Z,18.40
2022-12-09T17:09:36.273Z,18.70
2022-12-09T17:12:02.694Z,17.80
2022-12-09T17:14:29.088Z,19.10
2022-12-09T17:16:55.661Z,19.70
2022-12-09T17:19:22.760Z,18.80
2022-12-09T17:21:49.304Z,18.80
2022-12-09T17:24:16.042Z,18.80
2022-12-09T17:26:42.428Z,18.50
2022-12-09T17:29:08.847Z,19.00
2022-12-09T17:31:35.226Z,20.00
2022-12-09T17:34:01.612Z,20.90
2022-12-09T17:36:28.037Z,19.90
2022-12-09T17:38:54.414Z,20.10
2022-12-09T17:41:23.600Z,20.30
2022-12-09T17:43:51.031Z,19.90
2022-12-09T17:46:17.873Z,20.70
2022-12-09T17:48:44.382Z,20.20
2022-12-09T17:51:14.353Z,20.50
2022-12-09T17:53:42.398Z,20.50
2022-12-09T17:56:11.453Z,20.40
2022-12-09T17:58:38.624Z,19.80
2022-12-09T18:01:11.827Z,20.00
2022-12-09T18:03:55.435Z,20.60
2022-12-09T18:06:22.957Z,21.20
2022-12-09T18:08:49.302Z,32.90
2022-12-09T18:11:15.796Z,26.60
2022-12-09T18:13:42.257Z,33.50
2022-12-09T18:16:12.883Z,26.30
2022-12-09T18:18:40.115Z,27.70
2022-12-09T18:21:12.045Z,26.40
2022-12-09T18:23:41.839Z,26.10
2022-12-09T18:26:09.928Z,24.00
2022-12-09T18:28:37.036Z,26.00
2022-12-09T18:31:13.054Z,25.00
2022-12-09T18:33:40.277Z,22.50
2022-12-09T18:36:10.319Z,22.70
2022-12-09T18:38:37.701Z,23.40
2022-12-09T18:41:04.295Z,23.10
2022-12-09T18:43:37.073Z,24.00
2022-12-09T18:46:09.394Z,23.10
2022-12-09T18:48:36.695Z,21.00
2022-12-09T18:51:03.456Z,23.50
2022-12-09T18:53:30.394Z,22.90
2022-12-09T18:55:56.778Z,25.80
2022-12-09T18:58:42.494Z,25.40
2022-12-09T19:01:18.073Z,21.30
2022-12-09T19:03:45.212Z,21.60
2022-12-09T19:06:29.598Z,23.20
2022-12-09T19:08:58.947Z,28.60
2022-12-09T19:11:28.542Z,26.40
2022-12-09T19:13:55.888Z,28.10
2022-12-09T19:16:23.565Z,23.80
2022-12-09T19:18:52.501Z,25.00
2022-12-09T19:21:20.398Z,21.80
2022-12-09T19:23:47.520Z,27.20
2022-12-09T19:26:16.540Z,22.20
2022-12-09T19:28:58.360Z,27.30
2022-12-09T19:31:28.512Z,25.40
2022-12-09T19:33:59.981Z,22.70
2022-12-09T19:36:29.066Z,20.80
2022-12-09T19:38:57.503Z,20.90
2022-12-09T19:41:23.993Z,21.90
2022-12-09T19:43:57.724Z,23.90
2022-12-09T19:46:26.381Z,27.60
2022-12-09T19:48:53.619Z,25.80
2022-12-09T19:51:20.863Z,24.60
2022-12-09T19:53:48.621Z,26.90
2022-12-09T19:56:18.717Z,31.10
2022-12-09T19:58:46.393Z,30.90
2022-12-09T20:01:17.062Z,29.80
2022-12-09T20:03:45.306Z,25.60
2022-12-09T20:06:15.909Z,25.30
2022-12-09T20:08:43.208Z,23.90
2022-12-09T20:11:21.369Z,23.00
2022-12-09T20:13:48.218Z,25.00
2022-12-09T20:16:17.738Z,25.90
2022-12-09T20:18:45.456Z,27.50
2022-12-09T20:21:13.411Z,25.20
2022-12-09T20:23:41.597Z,26.20
2022-12-09T20:26:12.510Z,28.90
2022-12-09T20:28:40.743Z,33.10
2022-12-09T20:31:12.536Z,29.10
2022-12-09T20:33:40.189Z,25.90
2022-12-09T20:36:12.584Z,23.20
2022-12-09T20:38:39.771Z,24.20
2022-12-09T20:41:16.498Z,23.30
2022-12-09T20:43:45.566Z,24.70
2022-12-09T20:46:22.340Z,24.50
2022-12-09T20:48:50.099Z,24.40
2022-12-09T20:51:21.787Z,24.10
2022-12-09T20:53:49.333Z,21.90
2022-12-09T20:56:18.046Z,20.80
2022-12-09T20:58:45.972Z,19.40
2022-12-09T21:01:27.113Z,20.60
2022-12-09T21:03:55.369Z,22.80
2022-12-09T21:06:24.452Z,23.40
2022-12-09T21:08:51.456Z,23.60
2022-12-09T21:11:23.222Z,24.10
2022-12-09T21:13:52.574Z,25.40
2022-12-09T21:16:22.085Z,25.00
2022-12-09T21:18:50.733Z,26.50
2022-12-09T21:21:18.880Z,25.90
2022-12-09T21:23:45.916Z,25.20
2022-12-09T21:26:16.799Z,24.40
2022-12-09T21:28:44.839Z,24.50
2022-12-09T21:31:20.316Z,25.80
2022-12-09T21:33:48.519Z,25.10
2022-12-09T21:36:18.357Z,29.10
2022-12-09T21:38:44.967Z,24.90
2022-12-09T21:41:14.882Z,26.10
2022-12-09T21:43:41.938Z,26.20
2022-12-09T21:46:11.742Z,25.60
2022-12-09T21:48:39.239Z,23.80
2022-12-09T21:51:06.110Z,23.90
2022-12-09T21:53:33.246Z,23.00
2022-12-09T21:56:08.015Z,25.20
2022-12-09T21:58:35.653Z,22.40
2022-12-09T22:01:11.804Z,22.70
2022-12-09T22:03:38.852Z,23.30
2022-12-09T22:06:06.467Z,23.80
2022-12-09T22:08:32.989Z,24.70
2022-12-09T22:10:59.503Z,23.60
2022-12-09T22:13:26.919Z,22.00
2022-12-09T22:15:53.806Z,23.80
2022-12-09T22:18:20.271Z,24.10
2022-12-09T22:21:23.204Z,23.40
2022-12-09T22:23:33.481Z,21.60
2022-12-09T22:26:00.022Z,23.30
2022-12-09T22:28:28.292Z,24.90
2022-12-09T22:30:54.733Z,24.20
2022-12-09T22:33:21.217Z,27.90
2022-12-09T22:35:47.618Z,25.40
2022-12-09T22:38:14.844Z,28.30
2022-12-09T22:40:41.694Z,23.70
2022-12-09T22:43:08.137Z,27.10
2022-12-09T22:45:35.929Z,26.80
2022-12-09T22:48:02.818Z,27.10
2022-12-09T22:50:29.313Z,27.00
2022-12-09T22:52:56.010Z,28.50
2022-12-09T22:55:22.427Z,28.00
2022-12-09T22:57:48.853Z,27.40
2022-12-09T23:00:15.604Z,27.40
2022-12-09T23:02:42.108Z,27.70
2022-12-09T23:05:08.790Z,26.80
2022-12-09T23:07:35.758Z,27.90
2022-12-09T23:10:02.792Z,24.80
2022-12-09T23:12:29.225Z,24.70
2022-12-09T23:14:55.618Z,24.90
2022-12-09T23:17:21.988Z,22.70
2022-12-09T23:19:48.423Z,20.60
2022-12-09T23:22:14.789Z,22.40
2022-12-09T23:24:44.039Z,21.60
2022-12-09T23:27:10.485Z,23.60
2022-12-09T23:29:37.907Z,21.70
2022-12-09T23:32:04.460Z,19.90
2022-12-09T23:34:30.808Z,20.60
2022-12-09T23:36:57.198Z,21.00
2022-12-09T23:39:23.582Z,21.60
2022-12-09T23:41:49.928Z,22.60
2022-12-09T23:44:18.366Z,22.00
2022-12-09T23:46:44.956Z,23.00
2022-12-09T23:49:11.744Z,22.80
2022-12-09T23:51:41.029Z,23.80
2022-12-09T23:54:08.796Z,23.80
2022-12-09T23:56:43.973Z,22.60
2022-12-09T23:59:12.733Z,26.50
